sensor_id;sensor_type;location;lat;lon;timestamp;pressure;altitude;pressure_sealevel;temperature;humidity
76132;BME280;64877;50.994;13.650;2023-04-24T00:01:12;98379.88;;;11.68;75.68
76132;BME280;64877;50.994;13.650;2023-04-24T00:03:38;98383.31;;;11.70;75.57
76132;BME280;64877;50.994;13.650;2023-04-24T00:06:04;98377.34;;;11.84;74.90
76132;BME280;64877;50.994;13.650;2023-04-24T00:08:32;98385.50;;;11.92;74.78
76132;BME280;64877;50.994;13.650;2023-04-24T00:10:57;98387.91;;;11.95;74.45
76132;BME280;64877;50.994;13.650;2023-04-24T00:13:23;98390.88;;;11.84;74.06
76132;BME280;64877;50.994;13.650;2023-04-24T00:15:48;98395.34;;;11.75;75.50
76132;BME280;64877;50.994;13.650;2023-04-24T00:18:14;98410.56;;;11.76;75.33
76132;BME280;64877;50.994;13.650;2023-04-24T00:20:39;98401.59;;;11.76;74.98
76132;BME280;64877;50.994;13.650;2023-04-24T00:23:05;98404.59;;;11.73;74.72
76132;BME280;64877;50.994;13.650;2023-04-24T00:25:30;98405.03;;;11.60;76.03
76132;BME280;64877;50.994;13.650;2023-04-24T00:27:56;98399.75;;;11.58;75.00
76132;BME280;64877;50.994;13.650;2023-04-24T00:30:21;98395.69;;;11.54;76.74
76132;BME280;64877;50.994;13.650;2023-04-24T00:32:47;98399.75;;;11.58;77.06
76132;BME280;64877;50.994;13.650;2023-04-24T00:35:12;98396.44;;;11.64;77.15
76132;BME280;64877;50.994;13.650;2023-04-24T00:37:38;98391.25;;;11.71;76.25
76132;BME280;64877;50.994;13.650;2023-04-24T00:40:03;98395.19;;;11.77;76.00
76132;BME280;64877;50.994;13.650;2023-04-24T00:42:29;98392.31;;;11.78;75.79
76132;BME280;64877;50.994;13.650;2023-04-24T00:44:56;98390.16;;;11.82;76.55
76132;BME280;64877;50.994;13.650;2023-04-24T00:47:22;98389.47;;;11.80;75.73
76132;BME280;64877;50.994;13.650;2023-04-24T00:49:48;98389.75;;;11.77;76.05
76132;BME280;64877;50.994;13.650;2023-04-24T00:52:14;98386.69;;;11.72;76.27
76132;BME280;64877;50.994;13.650;2023-04-24T00:54:45;98387.69;;;11.71;76.17
76132;BME280;64877;50.994;13.650;2023-04-24T00:57:10;98388.38;;;11.73;76.72
76132;BME280;64877;50.994;13.650;2023-04-24T00:59:36;98377.25;;;11.76;76.97
76132;BME280;64877;50.994;13.650;2023-04-24T01:02:02;98382.13;;;11.72;76.67
76132;BME280;64877;50.994;13.650;2023-04-24T01:04:28;98380.13;;;11.74;76.55
76132;BME280;64877;50.994;13.650;2023-04-24T01:06:54;98384.59;;;11.83;76.42
76132;BME280;64877;50.994;13.650;2023-04-24T01:09:23;98384.81;;;11.90;76.29
76132;BME280;64877;50.994;13.650;2023-04-24T01:11:49;98381.41;;;11.88;75.78
76132;BME280;64877;50.994;13.650;2023-04-24T01:14:14;98370.09;;;11.84;75.98
76132;BME280;64877;50.994;13.650;2023-04-24T01:16:40;98374.31;;;11.87;76.17
76132;BME280;64877;50.994;13.650;2023-04-24T01:19:07;98376.34;;;11.85;75.78
76132;BME280;64877;50.994;13.650;2023-04-24T01:21:36;98375.50;;;11.84;76.21
76132;BME280;64877;50.994;13.650;2023-04-24T01:24:02;98382.19;;;11.80;76.49
76132;BME280;64877;50.994;13.650;2023-04-24T01:26:27;98383.13;;;11.89;76.04
76132;BME280;64877;50.994;13.650;2023-04-24T01:28:53;98385.13;;;11.87;75.91
76132;BME280;64877;50.994;13.650;2023-04-24T01:31:18;98373.94;;;11.82;75.70
76132;BME280;64877;50.994;13.650;2023-04-24T01:33:44;98377.63;;;11.81;76.59
76132;BME280;64877;50.994;13.650;2023-04-24T01:36:13;98375.09;;;11.79;77.32
76132;BME280;64877;50.994;13.650;2023-04-24T01:38:39;98374.91;;;11.81;77.51
76132;BME280;64877;50.994;13.650;2023-04-24T01:41:04;98383.13;;;11.89;76.38
76132;BME280;64877;50.994;13.650;2023-04-24T01:43:30;98380.81;;;11.94;76.37
76132;BME280;64877;50.994;13.650;2023-04-24T01:45:55;98368.91;;;11.87;76.72
76132;BME280;64877;50.994;13.650;2023-04-24T01:48:21;98384.06;;;11.80;77.67
76132;BME280;64877;50.994;13.650;2023-04-24T01:50:47;98374.66;;;11.84;77.00
76132;BME280;64877;50.994;13.650;2023-04-24T01:53:12;98381.09;;;11.91;77.54
76132;BME280;64877;50.994;13.650;2023-04-24T01:55:38;98378.56;;;11.89;76.75
76132;BME280;64877;50.994;13.650;2023-04-24T01:58:03;98370.66;;;11.96;76.37
76132;BME280;64877;50.994;13.650;2023-04-24T02:00:29;98372.50;;;11.96;77.02
76132;BME280;64877;50.994;13.650;2023-04-24T02:02:54;98375.06;;;11.97;76.25
76132;BME280;64877;50.994;13.650;2023-04-24T02:05:20;98374.28;;;12.05;75.80
76132;BME280;64877;50.994;13.650;2023-04-24T02:07:45;98376.31;;;12.11;76.37
76132;BME280;64877;50.994;13.650;2023-04-24T02:10:11;98376.88;;;12.14;76.05
76132;BME280;64877;50.994;13.650;2023-04-24T02:12:37;98378.56;;;12.15;75.71
76132;BME280;64877;50.994;13.650;2023-04-24T02:15:02;98375.00;;;12.15;75.06
76132;BME280;64877;50.994;13.650;2023-04-24T02:17:28;98375.16;;;12.13;76.04
76132;BME280;64877;50.994;13.650;2023-04-24T02:19:53;98372.28;;;12.15;75.92
76132;BME280;64877;50.994;13.650;2023-04-24T02:22:19;98375.16;;;12.13;76.37
76132;BME280;64877;50.994;13.650;2023-04-24T02:24:44;98376.88;;;12.14;76.28
76132;BME280;64877;50.994;13.650;2023-04-24T02:27:10;98376.88;;;12.14;76.17
76132;BME280;64877;50.994;13.650;2023-04-24T02:29:36;98381.94;;;12.18;75.99
76132;BME280;64877;50.994;13.650;2023-04-24T02:32:01;98389.06;;;12.19;75.82
76132;BME280;64877;50.994;13.650;2023-04-24T02:34:27;98384.13;;;12.14;76.58
76132;BME280;64877;50.994;13.650;2023-04-24T02:36:52;98376.31;;;12.11;76.49
76132;BME280;64877;50.994;13.650;2023-04-24T02:39:19;98378.50;;;12.07;76.28
76132;BME280;64877;50.994;13.650;2023-04-24T02:41:44;98372.78;;;12.10;75.75
76132;BME280;64877;50.994;13.650;2023-04-24T02:44:10;98378.56;;;12.15;76.15
76132;BME280;64877;50.994;13.650;2023-04-24T02:46:35;98372.59;;;12.12;76.86
76132;BME280;64877;50.994;13.650;2023-04-24T02:49:01;98380.59;;;12.13;76.32
76132;BME280;64877;50.994;13.650;2023-04-24T02:51:26;98373.13;;;12.15;76.61
76132;BME280;64877;50.994;13.650;2023-04-24T02:53:52;98366.75;;;12.25;75.77
76132;BME280;64877;50.994;13.650;2023-04-24T02:56:17;98365.56;;;12.19;76.46
76132;BME280;64877;50.994;13.650;2023-04-24T02:58:43;98361.66;;;12.22;75.57
76132;BME280;64877;50.994;13.650;2023-04-24T03:01:09;98361.66;;;12.22;75.89
76132;BME280;64877;50.994;13.650;2023-04-24T03:03:35;98364.34;;;12.13;76.93
76132;BME280;64877;50.994;13.650;2023-04-24T03:06:01;98355.72;;;12.18;76.11
76132;BME280;64877;50.994;13.650;2023-04-24T03:08:27;98360.63;;;12.14;76.29
76132;BME280;64877;50.994;13.650;2023-04-24T03:10:52;98356.53;;;12.10;77.26
76132;BME280;64877;50.994;13.650;2023-04-24T03:13:17;98355.88;;;12.16;76.38
76132;BME280;64877;50.994;13.650;2023-04-24T03:15:43;98357.25;;;12.21;76.38
76132;BME280;64877;50.994;13.650;2023-04-24T03:18:08;98359.81;;;12.22;75.92
76132;BME280;64877;50.994;13.650;2023-04-24T03:20:34;98356.28;;;12.30;75.22
76132;BME280;64877;50.994;13.650;2023-04-24T03:22:59;98355.16;;;12.40;75.12
76132;BME280;64877;50.994;13.650;2023-04-24T03:25:25;98358.72;;;12.41;74.58
76132;BME280;64877;50.994;13.650;2023-04-24T03:27:50;98361.59;;;12.48;73.55
76132;BME280;64877;50.994;13.650;2023-04-24T03:30:16;98357.91;;;12.49;74.01
76132;BME280;64877;50.994;13.650;2023-04-24T03:32:41;98349.59;;;12.50;73.59
76132;BME280;64877;50.994;13.650;2023-04-24T03:35:07;98358.09;;;12.55;73.39
76132;BME280;64877;50.994;13.650;2023-04-24T03:37:33;98360.13;;;12.53;72.82
76132;BME280;64877;50.994;13.650;2023-04-24T03:39:59;98361.16;;;12.60;72.47
76132;BME280;64877;50.994;13.650;2023-04-24T03:42:24;98357.44;;;12.61;72.38
76132;BME280;64877;50.994;13.650;2023-04-24T03:44:50;98357.44;;;12.61;72.56
76132;BME280;64877;50.994;13.650;2023-04-24T03:47:15;98367.63;;;12.76;71.83
76132;BME280;64877;50.994;13.650;2023-04-24T03:49:40;98370.34;;;12.76;71.62
76132;BME280;64877;50.994;13.650;2023-04-24T03:52:06;98372.38;;;12.74;71.44
76132;BME280;64877;50.994;13.650;2023-04-24T03:54:31;98364.97;;;12.84;70.46
76132;BME280;64877;50.994;13.650;2023-04-24T03:56:56;98372.75;;;12.87;70.75
76132;BME280;64877;50.994;13.650;2023-04-24T03:59:22;98384.41;;;12.87;70.25
76132;BME280;64877;50.994;13.650;2023-04-24T04:01:47;98388.00;;;12.88;70.45
76132;BME280;64877;50.994;13.650;2023-04-24T04:04:13;98386.97;;;12.89;69.69
76132;BME280;64877;50.994;13.650;2023-04-24T04:06:38;98386.31;;;12.95;68.52
76132;BME280;64877;50.994;13.650;2023-04-24T04:09:04;98387.84;;;12.98;68.71
76132;BME280;64877;50.994;13.650;2023-04-24T04:11:29;98390.88;;;12.94;68.74
76132;BME280;64877;50.994;13.650;2023-04-24T04:13:55;98385.13;;;12.98;69.25
76132;BME280;64877;50.994;13.650;2023-04-24T04:16:22;98395.13;;;12.97;68.97
76132;BME280;64877;50.994;13.650;2023-04-24T04:18:47;98391.06;;;13.01;69.11
76132;BME280;64877;50.994;13.650;2023-04-24T04:21:13;98385.47;;;13.03;68.59
76132;BME280;64877;50.994;13.650;2023-04-24T04:23:38;98387.69;;;13.07;69.29
76132;BME280;64877;50.994;13.650;2023-04-24T04:26:05;98388.38;;;13.09;68.63
76132;BME280;64877;50.994;13.650;2023-04-24T04:28:31;98399.22;;;13.09;68.56
76132;BME280;64877;50.994;13.650;2023-04-24T04:30:57;98384.66;;;13.10;68.18
76132;BME280;64877;50.994;13.650;2023-04-24T04:33:23;98381.66;;;13.22;67.77
76132;BME280;64877;50.994;13.650;2023-04-24T04:35:48;98374.81;;;13.17;68.03
76132;BME280;64877;50.994;13.650;2023-04-24T04:38:15;98378.22;;;13.19;68.07
76132;BME280;64877;50.994;13.650;2023-04-24T04:40:42;98371.44;;;13.15;68.13
76132;BME280;64877;50.994;13.650;2023-04-24T04:43:07;98373.13;;;13.16;67.96
76132;BME280;64877;50.994;13.650;2023-04-24T04:45:33;98377.38;;;13.19;67.94
76132;BME280;64877;50.994;13.650;2023-04-24T04:47:59;98373.13;;;13.16;67.73
76132;BME280;64877;50.994;13.650;2023-04-24T04:50:28;98378.94;;;13.22;67.11
76132;BME280;64877;50.994;13.650;2023-04-24T04:52:54;98384.22;;;13.23;67.37
76132;BME280;64877;50.994;13.650;2023-04-24T04:55:19;98378.22;;;13.19;67.30
76132;BME280;64877;50.994;13.650;2023-04-24T04:57:46;98382.50;;;13.22;67.37
76132;BME280;64877;50.994;13.650;2023-04-24T05:00:12;98390.66;;;13.30;67.04
76132;BME280;64877;50.994;13.650;2023-04-24T05:02:38;98394.03;;;13.32;66.68
76132;BME280;64877;50.994;13.650;2023-04-24T05:05:04;98383.69;;;13.36;66.83
76132;BME280;64877;50.994;13.650;2023-04-24T05:07:30;98378.78;;;13.39;66.53
76132;BME280;64877;50.994;13.650;2023-04-24T05:09:56;98391.00;;;13.43;66.18
76132;BME280;64877;50.994;13.650;2023-04-24T05:12:21;98380.81;;;13.37;65.98
76132;BME280;64877;50.994;13.650;2023-04-24T05:14:46;98391.00;;;13.43;66.18
76132;BME280;64877;50.994;13.650;2023-04-24T05:17:12;98395.09;;;13.48;66.17
76132;BME280;64877;50.994;13.650;2023-04-24T05:19:37;98395.06;;;13.56;65.79
76132;BME280;64877;50.994;13.650;2023-04-24T05:22:04;98396.59;;;13.58;65.10
76132;BME280;64877;50.994;13.650;2023-04-24T05:24:32;98391.84;;;13.60;64.48
76132;BME280;64877;50.994;13.650;2023-04-24T05:26:57;98393.53;;;13.61;64.96
76132;BME280;64877;50.994;13.650;2023-04-24T05:29:23;98397.63;;;13.74;64.90
76132;BME280;64877;50.994;13.650;2023-04-24T05:31:49;98391.00;;;13.68;65.86
76132;BME280;64877;50.994;13.650;2023-04-24T05:34:15;98403.72;;;13.67;65.28
76132;BME280;64877;50.994;13.650;2023-04-24T05:36:41;98393.38;;;13.71;65.15
76132;BME280;64877;50.994;13.650;2023-04-24T05:39:07;98396.59;;;13.75;64.96
76132;BME280;64877;50.994;13.650;2023-04-24T05:41:33;98399.97;;;13.77;65.05
76132;BME280;64877;50.994;13.650;2023-04-24T05:43:59;98397.63;;;13.74;64.67
76132;BME280;64877;50.994;13.650;2023-04-24T05:46:24;98395.75;;;13.74;65.57
76132;BME280;64877;50.994;13.650;2023-04-24T05:48:50;98403.38;;;13.79;65.22
76132;BME280;64877;50.994;13.650;2023-04-24T05:51:15;98400.50;;;13.80;64.49
76132;BME280;64877;50.994;13.650;2023-04-24T05:53:41;98402.88;;;13.75;64.96
76132;BME280;64877;50.994;13.650;2023-04-24T05:56:06;98406.94;;;13.79;64.45
76132;BME280;64877;50.994;13.650;2023-04-24T05:58:32;98410.50;;;13.80;64.64
76132;BME280;64877;50.994;13.650;2023-04-24T06:00:57;98410.16;;;13.83;64.78
76132;BME280;64877;50.994;13.650;2023-04-24T06:03:24;98407.44;;;13.91;64.06
76132;BME280;64877;50.994;13.650;2023-04-24T06:05:52;98410.13;;;13.91;64.66
76132;BME280;64877;50.994;13.650;2023-04-24T06:08:17;98408.59;;;13.96;64.39
76132;BME280;64877;50.994;13.650;2023-04-24T06:10:43;98404.34;;;14.02;64.37
76132;BME280;64877;50.994;13.650;2023-04-24T06:13:08;98412.50;;;14.02;64.27
76132;BME280;64877;50.994;13.650;2023-04-24T06:15:33;98404.34;;;14.10;63.94
76132;BME280;64877;50.994;13.650;2023-04-24T06:17:59;98406.72;;;14.13;63.50
76132;BME280;64877;50.994;13.650;2023-04-24T06:20:24;98411.47;;;14.19;63.18
76132;BME280;64877;50.994;13.650;2023-04-24T06:22:50;98413.84;;;14.22;62.82
76132;BME280;64877;50.994;13.650;2023-04-24T06:25:15;98407.19;;;14.25;63.45
76132;BME280;64877;50.994;13.650;2023-04-24T06:27:41;98408.06;;;14.26;63.00
76132;BME280;64877;50.994;13.650;2023-04-24T06:30:07;98410.44;;;14.29;62.69
76132;BME280;64877;50.994;13.650;2023-04-24T06:32:32;98412.31;;;14.28;62.62
76132;BME280;64877;50.994;13.650;2023-04-24T06:34:58;98412.09;;;14.38;62.94
76132;BME280;64877;50.994;13.650;2023-04-24T06:37:23;98414.13;;;14.36;63.82
76132;BME280;64877;50.994;13.650;2023-04-24T06:39:49;98415.81;;;14.45;63.91
76132;BME280;64877;50.994;13.650;2023-04-24T06:42:14;98411.41;;;14.52;61.21
76132;BME280;64877;50.994;13.650;2023-04-24T06:44:40;98414.31;;;14.42;62.29
76132;BME280;64877;50.994;13.650;2023-04-24T06:47:11;98416.16;;;14.50;62.98
76132;BME280;64877;50.994;13.650;2023-04-24T06:49:39;98416.47;;;14.63;62.31
76132;BME280;64877;50.994;13.650;2023-04-24T06:52:05;98412.06;;;14.62;60.67
76132;BME280;64877;50.994;13.650;2023-04-24T06:54:31;98418.13;;;14.72;60.74
76132;BME280;64877;50.994;13.650;2023-04-24T06:56:56;98417.47;;;15.02;59.66
76132;BME280;64877;50.994;13.650;2023-04-24T06:59:26;98424.78;;;15.32;58.88
76132;BME280;64877;50.994;13.650;2023-04-24T07:01:52;98419.00;;;15.58;57.10
76132;BME280;64877;50.994;13.650;2023-04-24T07:04:17;98415.81;;;15.77;56.83
76132;BME280;64877;50.994;13.650;2023-04-24T07:06:45;98413.22;;;15.99;55.94
76132;BME280;64877;50.994;13.650;2023-04-24T07:09:11;98409.63;;;15.84;55.57
76132;BME280;64877;50.994;13.650;2023-04-24T07:11:38;98417.50;;;15.79;55.61
76132;BME280;64877;50.994;13.650;2023-04-24T07:14:06;98415.16;;;15.90;55.58
76132;BME280;64877;50.994;13.650;2023-04-24T07:16:31;98426.31;;;15.58;56.86
76132;BME280;64877;50.994;13.650;2023-04-24T07:18:57;98430.31;;;15.47;57.21
76132;BME280;64877;50.994;13.650;2023-04-24T07:21:22;98435.75;;;15.47;56.92
76132;BME280;64877;50.994;13.650;2023-04-24T07:23:47;98429.34;;;15.63;57.05
76132;BME280;64877;50.994;13.650;2023-04-24T07:26:13;98435.50;;;15.80;56.35
76132;BME280;64877;50.994;13.650;2023-04-24T07:28:40;98431.34;;;15.92;55.33
76132;BME280;64877;50.994;13.650;2023-04-24T07:31:06;98429.88;;;15.81;55.21
76132;BME280;64877;50.994;13.650;2023-04-24T07:33:32;98426.78;;;16.07;55.17
76132;BME280;64877;50.994;13.650;2023-04-24T07:35:57;98433.47;;;16.19;54.50
76132;BME280;64877;50.994;13.650;2023-04-24T07:38:22;98440.03;;;16.25;53.74
76132;BME280;64877;50.994;13.650;2023-04-24T07:40:48;98431.91;;;16.54;53.64
76132;BME280;64877;50.994;13.650;2023-04-24T07:43:14;98438.94;;;16.64;54.12
76132;BME280;64877;50.994;13.650;2023-04-24T07:45:39;98429.47;;;16.74;53.62
76132;BME280;64877;50.994;13.650;2023-04-24T07:48:05;98431.16;;;16.75;53.55
76132;BME280;64877;50.994;13.650;2023-04-24T07:50:31;98436.72;;;16.67;53.30
76132;BME280;64877;50.994;13.650;2023-04-24T07:52:56;98431.06;;;16.54;53.22
76132;BME280;64877;50.994;13.650;2023-04-24T07:55:22;98443.41;;;16.79;53.25
76132;BME280;64877;50.994;13.650;2023-04-24T07:57:48;98435.09;;;17.02;52.59
76132;BME280;64877;50.994;13.650;2023-04-24T08:00:13;98424.44;;;18.01;50.58
76132;BME280;64877;50.994;13.650;2023-04-24T08:02:39;98420.59;;;18.52;49.50
76132;BME280;64877;50.994;13.650;2023-04-24T08:05:05;98414.34;;;18.93;48.08
76132;BME280;64877;50.994;13.650;2023-04-24T08:07:31;98421.91;;;19.45;46.10
76132;BME280;64877;50.994;13.650;2023-04-24T08:09:56;98419.28;;;19.92;45.25
76132;BME280;64877;50.994;13.650;2023-04-24T08:12:21;98415.16;;;19.34;45.78
76132;BME280;64877;50.994;13.650;2023-04-24T08:14:47;98427.03;;;19.07;46.25
76132;BME280;64877;50.994;13.650;2023-04-24T08:17:12;98439.19;;;18.63;47.41
76132;BME280;64877;50.994;13.650;2023-04-24T08:19:40;98434.09;;;18.25;49.23
76132;BME280;64877;50.994;13.650;2023-04-24T08:22:09;98436.78;;;17.97;49.07
76132;BME280;64877;50.994;13.650;2023-04-24T08:24:35;98444.53;;;17.94;49.35
76132;BME280;64877;50.994;13.650;2023-04-24T08:27:00;98442.59;;;17.88;50.36
76132;BME280;64877;50.994;13.650;2023-04-24T08:29:26;98431.97;;;17.56;50.21
76132;BME280;64877;50.994;13.650;2023-04-24T08:31:51;98445.91;;;17.47;48.83
76132;BME280;64877;50.994;13.650;2023-04-24T08:34:19;98444.72;;;17.35;50.78
76132;BME280;64877;50.994;13.650;2023-04-24T08:36:45;98445.59;;;17.56;49.37
76132;BME280;64877;50.994;13.650;2023-04-24T08:39:10;98446.75;;;17.47;49.52
76132;BME280;64877;50.994;13.650;2023-04-24T08:41:36;98449.25;;;17.27;50.47
76132;BME280;64877;50.994;13.650;2023-04-24T08:44:03;98445.66;;;17.42;48.75
76132;BME280;64877;50.994;13.650;2023-04-24T08:46:30;98458.09;;;17.29;50.12
76132;BME280;64877;50.994;13.650;2023-04-24T08:48:55;98445.69;;;17.27;49.68
76132;BME280;64877;50.994;13.650;2023-04-24T08:51:21;98443.59;;;17.29;50.04
76132;BME280;64877;50.994;13.650;2023-04-24T08:53:48;98447.44;;;17.35;49.82
76132;BME280;64877;50.994;13.650;2023-04-24T08:56:14;98446.44;;;17.36;51.07
76132;BME280;64877;50.994;13.650;2023-04-24T08:58:40;98446.44;;;17.36;48.30
76132;BME280;64877;50.994;13.650;2023-04-24T09:01:06;98455.56;;;17.28;47.77
76132;BME280;64877;50.994;13.650;2023-04-24T09:03:33;98451.44;;;17.53;48.20
76132;BME280;64877;50.994;13.650;2023-04-24T09:05:58;98446.97;;;17.46;48.04
76132;BME280;64877;50.994;13.650;2023-04-24T09:08:25;98446.19;;;17.52;47.05
76132;BME280;64877;50.994;13.650;2023-04-24T09:10:53;98442.69;;;17.22;47.35
76132;BME280;64877;50.994;13.650;2023-04-24T09:13:19;98445.75;;;17.34;49.06
76132;BME280;64877;50.994;13.650;2023-04-24T09:15:45;98444.31;;;17.52;50.06
76132;BME280;64877;50.994;13.650;2023-04-24T09:18:10;98447.34;;;17.64;47.91
76132;BME280;64877;50.994;13.650;2023-04-24T09:20:59;98448.03;;;17.88;47.93
76132;BME280;64877;50.994;13.650;2023-04-24T09:23:27;98449.03;;;17.65;49.26
76132;BME280;64877;50.994;13.650;2023-04-24T09:25:56;98450.22;;;17.56;47.73
76132;BME280;64877;50.994;13.650;2023-04-24T09:28:29;98453.34;;;17.53;47.26
76132;BME280;64877;50.994;13.650;2023-04-24T09:31:17;98452.47;;;17.31;47.65
76132;BME280;64877;50.994;13.650;2023-04-24T09:34:04;98453.38;;;17.38;49.84
76132;BME280;64877;50.994;13.650;2023-04-24T09:36:41;98456.16;;;17.45;48.04
76132;BME280;64877;50.994;13.650;2023-04-24T09:39:14;98449.22;;;17.42;47.81
76132;BME280;64877;50.994;13.650;2023-04-24T09:41:54;98451.50;;;17.39;49.98
76132;BME280;64877;50.994;13.650;2023-04-24T09:44:23;98446.06;;;17.24;49.62
76132;BME280;64877;50.994;13.650;2023-04-24T09:46:53;98443.63;;;17.14;48.53
76132;BME280;64877;50.994;13.650;2023-04-24T09:49:26;98445.16;;;17.17;50.89
76132;BME280;64877;50.994;13.650;2023-04-24T09:51:53;98456.28;;;16.86;48.16
76132;BME280;64877;50.994;13.650;2023-04-24T09:54:27;98448.28;;;16.84;49.72
76132;BME280;64877;50.994;13.650;2023-04-24T09:56:54;98456.38;;;16.77;48.86
76132;BME280;64877;50.994;13.650;2023-04-24T09:59:19;98453.22;;;16.66;50.89
76132;BME280;64877;50.994;13.650;2023-04-24T10:01:45;98451.75;;;16.63;50.66
76132;BME280;64877;50.994;13.650;2023-04-24T10:04:24;98435.47;;;16.55;49.40
76132;BME280;64877;50.994;13.650;2023-04-24T10:06:51;98438.38;;;16.68;49.99
76132;BME280;64877;50.994;13.650;2023-04-24T10:09:19;98446.94;;;16.65;52.26
76132;BME280;64877;50.994;13.650;2023-04-24T10:11:47;98439.03;;;16.70;51.15
76132;BME280;64877;50.994;13.650;2023-04-24T10:14:14;98442.25;;;16.89;48.88
76132;BME280;64877;50.994;13.650;2023-04-24T10:16:40;98429.34;;;17.12;48.25
76132;BME280;64877;50.994;13.650;2023-04-24T10:19:07;98432.63;;;17.22;48.76
76132;BME280;64877;50.994;13.650;2023-04-24T10:21:32;98429.66;;;17.39;48.32
76132;BME280;64877;50.994;13.650;2023-04-24T10:23:59;98422.66;;;17.72;47.22
76132;BME280;64877;50.994;13.650;2023-04-24T10:26:28;98432.44;;;17.81;46.71
76132;BME280;64877;50.994;13.650;2023-04-24T10:28:57;98418.63;;;17.68;46.61
76132;BME280;64877;50.994;13.650;2023-04-24T10:31:23;98419.38;;;17.77;47.30
76132;BME280;64877;50.994;13.650;2023-04-24T10:33:50;98416.50;;;17.85;46.86
76132;BME280;64877;50.994;13.650;2023-04-24T10:36:17;98415.66;;;17.85;47.90
76132;BME280;64877;50.994;13.650;2023-04-24T10:38:45;98419.75;;;17.74;48.21
76132;BME280;64877;50.994;13.650;2023-04-24T10:41:12;98429.03;;;17.58;49.07
76132;BME280;64877;50.994;13.650;2023-04-24T10:44:11;98427.66;;;17.69;47.28
76132;BME280;64877;50.994;13.650;2023-04-24T10:46:38;98429.41;;;17.55;46.56
76132;BME280;64877;50.994;13.650;2023-04-24T10:49:05;98425.41;;;17.94;46.19
76132;BME280;64877;50.994;13.650;2023-04-24T10:54:33;98428.66;;;17.61;46.95
76132;BME280;64877;50.994;13.650;2023-04-24T10:59:43;98445.13;;;17.53;47.61
76132;BME280;64877;50.994;13.650;2023-04-24T11:02:09;98450.31;;;17.26;48.17
76132;BME280;64877;50.994;13.650;2023-04-24T11:04:35;98439.00;;;17.29;48.32
76132;BME280;64877;50.994;13.650;2023-04-24T11:07:01;98454.22;;;16.88;49.48
76132;BME280;64877;50.994;13.650;2023-04-24T11:09:28;98448.44;;;16.68;50.18
76132;BME280;64877;50.994;13.650;2023-04-24T11:12:05;98457.09;;;16.42;51.08
76132;BME280;64877;50.994;13.650;2023-04-24T11:17:36;98452.66;;;16.70;51.12
76132;BME280;64877;50.994;13.650;2023-04-24T11:20:10;98465.59;;;16.76;51.32
76132;BME280;64877;50.994;13.650;2023-04-24T11:22:38;98464.84;;;16.83;50.42
76132;BME280;64877;50.994;13.650;2023-04-24T11:25:05;98460.28;;;16.60;50.63
76132;BME280;64877;50.994;13.650;2023-04-24T11:27:41;98454.50;;;16.93;50.54
76132;BME280;64877;50.994;13.650;2023-04-24T11:30:07;98451.72;;;17.22;49.41
76132;BME280;64877;50.994;13.650;2023-04-24T11:35:03;98449.72;;;17.67;48.75
76132;BME280;64877;50.994;13.650;2023-04-24T11:37:34;98450.75;;;17.66;48.14
76132;BME280;64877;50.994;13.650;2023-04-24T11:40:01;98442.09;;;17.63;48.60
76132;BME280;64877;50.994;13.650;2023-04-24T11:42:28;98442.31;;;17.61;48.61
76132;BME280;64877;50.994;13.650;2023-04-24T11:44:54;98439.84;;;17.66;48.83
76132;BME280;64877;50.994;13.650;2023-04-24T11:47:30;98438.47;;;17.55;49.44
76132;BME280;64877;50.994;13.650;2023-04-24T11:49:56;98439.03;;;17.51;49.98
76132;BME280;64877;50.994;13.650;2023-04-24T11:52:21;98445.25;;;17.45;49.69
76132;BME280;64877;50.994;13.650;2023-04-24T11:54:48;98441.88;;;17.43;48.47
76132;BME280;64877;50.994;13.650;2023-04-24T11:57:14;98443.97;;;17.62;46.14
76132;BME280;64877;50.994;13.650;2023-04-24T11:59:40;98430.22;;;17.70;44.70
76132;BME280;64877;50.994;13.650;2023-04-24T12:02:06;98441.88;;;17.64;45.54
76132;BME280;64877;50.994;13.650;2023-04-24T12:04:40;98456.75;;;17.40;45.54
76132;BME280;64877;50.994;13.650;2023-04-24T12:07:06;98453.69;;;17.28;45.01
76132;BME280;64877;50.994;13.650;2023-04-24T12:09:54;98454.13;;;16.96;43.61
76132;BME280;64877;50.994;13.650;2023-04-24T12:12:24;98456.75;;;16.74;44.37
76132;BME280;64877;50.994;13.650;2023-04-24T12:14:54;98476.63;;;16.60;45.00
76132;BME280;64877;50.994;13.650;2023-04-24T12:17:31;98464.81;;;16.53;45.70
76132;BME280;64877;50.994;13.650;2023-04-24T12:19:58;98458.06;;;16.78;44.55
76132;BME280;64877;50.994;13.650;2023-04-24T12:22:25;98446.38;;;17.14;43.82
76132;BME280;64877;50.994;13.650;2023-04-24T12:25:04;98436.59;;;17.05;43.34
76132;BME280;64877;50.994;13.650;2023-04-24T12:27:33;98442.63;;;17.00;43.04
76132;BME280;64877;50.994;13.650;2023-04-24T12:30:01;98443.75;;;17.06;43.09
76132;BME280;64877;50.994;13.650;2023-04-24T12:32:27;98447.16;;;16.93;42.34
76132;BME280;64877;50.994;13.650;2023-04-24T12:34:54;98455.63;;;16.84;42.43
76132;BME280;64877;50.994;13.650;2023-04-24T12:37:20;98462.41;;;16.88;42.58
76132;BME280;64877;50.994;13.650;2023-04-24T12:40:05;98462.19;;;16.89;43.22
76132;BME280;64877;50.994;13.650;2023-04-24T12:42:32;98469.25;;;16.98;43.36
76132;BME280;64877;50.994;13.650;2023-04-24T12:44:59;98463.78;;;16.98;42.87
76132;BME280;64877;50.994;13.650;2023-04-24T12:47:26;98469.59;;;17.10;41.99
76132;BME280;64877;50.994;13.650;2023-04-24T12:49:51;98467.56;;;16.97;41.61
76132;BME280;64877;50.994;13.650;2023-04-24T12:52:18;98469.72;;;17.02;41.72
76132;BME280;64877;50.994;13.650;2023-04-24T12:54:45;98471.97;;;16.98;41.42
76132;BME280;64877;50.994;13.650;2023-04-24T12:57:11;98462.91;;;17.27;40.77
76132;BME280;64877;50.994;13.650;2023-04-24T12:59:36;98454.16;;;17.32;40.01